createdAt,value
2018-09-04T00:00:19.720Z,3.53
2018-09-04T00:02:48.638Z,2.40
2018-09-04T00:05:18.012Z,3.73
2018-09-04T00:07:46.367Z,4.03
2018-09-04T00:10:15.291Z,2.30
2018-09-04T00:12:43.686Z,4.20
2018-09-04T00:15:12.077Z,3.90
2018-09-04T00:17:40.398Z,3.27
2018-09-04T00:20:09.483Z,4.40
2018-09-04T00:22:37.874Z,2.00
2018-09-04T00:25:06.570Z,3.30
2018-09-04T00:27:34.938Z,3.57
2018-09-04T00:30:03.321Z,4.20
2018-09-04T00:32:31.986Z,2.97
2018-09-04T00:35:00.395Z,2.80
2018-09-04T00:37:29.000Z,3.63
2018-09-04T00:39:57.433Z,3.67
2018-09-04T00:42:26.047Z,2.97
2018-09-04T00:44:54.165Z,2.70
2018-09-04T00:47:22.713Z,2.80
2018-09-04T00:49:51.113Z,2.63
2018-09-04T00:52:19.217Z,2.87
2018-09-04T00:54:47.537Z,3.03
2018-09-04T00:57:16.121Z,3.40
2018-09-04T00:59:44.834Z,3.30
2018-09-04T01:02:14.614Z,2.67
2018-09-04T01:04:45.909Z,3.50
2018-09-04T01:07:14.261Z,2.90
2018-09-04T01:09:42.608Z,2.50
2018-09-04T01:12:10.708Z,3.73
2018-09-04T01:14:39.046Z,3.00
2018-09-04T01:17:07.146Z,4.17
2018-09-04T01:19:36.872Z,2.90
2018-09-04T01:22:05.336Z,3.47
2018-09-04T01:24:33.814Z,2.97
2018-09-04T01:27:01.937Z,3.07
2018-09-04T01:29:31.609Z,3.33
2018-09-04T01:32:00.005Z,3.33
2018-09-04T01:34:28.392Z,2.40
2018-09-04T01:36:56.714Z,2.47
2018-09-04T01:39:25.161Z,2.30
2018-09-04T01:41:53.293Z,3.17
2018-09-04T01:44:21.374Z,2.63
2018-09-04T01:46:49.760Z,3.03
2018-09-04T01:49:17.870Z,3.97
2018-09-04T01:51:45.929Z,3.10
2018-09-04T01:54:13.990Z,2.77
2018-09-04T01:56:42.381Z,2.43
2018-09-04T01:59:10.766Z,2.20
2018-09-04T02:01:38.875Z,2.70
2018-09-04T02:04:07.286Z,3.07
2018-09-04T02:06:35.362Z,2.77
2018-09-04T02:09:04.863Z,2.57
2018-09-04T02:11:32.986Z,3.10
2018-09-04T02:14:01.823Z,2.17
2018-09-04T02:16:30.167Z,2.47
2018-09-04T02:18:58.301Z,3.27
2018-09-04T02:21:27.082Z,2.73
2018-09-04T02:23:55.329Z,3.00
2018-09-04T02:26:24.189Z,3.23
2018-09-04T02:28:52.302Z,3.17
2018-09-04T02:31:20.394Z,2.83
2018-09-04T02:33:48.461Z,3.20
2018-09-04T02:36:16.781Z,2.40
2018-09-04T02:38:44.844Z,2.47
2018-09-04T02:41:12.978Z,3.50
2018-09-04T02:43:41.081Z,3.27
2018-09-04T02:46:09.229Z,3.00
2018-09-04T02:48:38.058Z,3.33
2018-09-04T02:51:06.172Z,2.37
2018-09-04T02:53:34.258Z,2.80
2018-09-04T02:56:02.306Z,3.23
2018-09-04T02:58:30.691Z,2.77
2018-09-04T03:00:58.829Z,4.20
2018-09-04T03:03:29.443Z,2.90
2018-09-04T03:05:58.158Z,3.67
2018-09-04T03:08:26.257Z,2.10
2018-09-04T03:10:54.813Z,2.00
2018-09-04T03:13:24.055Z,2.47
2018-09-04T03:15:52.073Z,3.23
2018-09-04T03:18:20.169Z,3.27
2018-09-04T03:20:48.517Z,3.37
2018-09-04T03:23:16.921Z,4.20
2018-09-04T03:25:45.678Z,3.43
2018-09-04T03:28:14.157Z,2.60
2018-09-04T03:30:42.593Z,3.73
2018-09-04T03:33:10.653Z,4.60
2018-09-04T03:35:41.000Z,3.80
2018-09-04T03:38:10.758Z,4.00
2018-09-04T03:40:38.879Z,4.27
2018-09-04T03:43:07.142Z,2.87
2018-09-04T03:45:35.260Z,2.67
2018-09-04T03:48:03.745Z,2.90
2018-09-04T03:50:31.861Z,3.40
2018-09-04T03:53:00.161Z,2.50
2018-09-04T03:55:28.241Z,2.40
2018-09-04T03:57:56.765Z,3.00
2018-09-04T04:00:24.809Z,3.50
2018-09-04T04:02:53.114Z,3.97
2018-09-04T04:05:21.293Z,4.00
2018-09-04T04:07:51.418Z,3.87
2018-09-04T04:10:19.474Z,3.53
2018-09-04T04:12:48.177Z,3.80
2018-09-04T04:15:16.266Z,3.10
2018-09-04T04:17:44.593Z,2.87
2018-09-04T04:20:12.690Z,3.57
2018-09-04T04:22:40.825Z,4.40
2018-09-04T04:25:09.215Z,5.63
2018-09-04T04:27:37.473Z,3.20
2018-09-04T04:30:07.631Z,4.47
2018-09-04T04:32:36.151Z,4.10
2018-09-04T04:35:04.654Z,4.03
2018-09-04T04:37:33.490Z,4.53
2018-09-04T04:40:01.867Z,4.57
2018-09-04T04:42:30.209Z,4.07
2018-09-04T04:44:58.261Z,3.67
2018-09-04T04:47:32.849Z,3.53
2018-09-04T04:50:01.226Z,3.27
2018-09-04T04:52:29.290Z,4.47
2018-09-04T04:54:58.982Z,2.73
2018-09-04T04:57:29.200Z,3.13
2018-09-04T04:59:58.023Z,4.47
2018-09-04T05:02:27.168Z,4.53
2018-09-04T05:04:56.190Z,4.43
2018-09-04T05:07:26.084Z,4.50
2018-09-04T05:09:54.873Z,4.10
2018-09-04T05:12:25.022Z,3.77
2018-09-04T05:14:53.415Z,4.10
2018-09-04T05:17:21.693Z,3.90
2018-09-04T05:19:50.729Z,3.83
2018-09-04T05:22:19.419Z,5.40
2018-09-04T05:24:47.857Z,4.30
2018-09-04T05:27:16.589Z,4.90
2018-09-04T05:29:44.661Z,5.37
2018-09-04T05:33:22.306Z,5.00
2018-09-04T05:35:53.482Z,3.30
2018-09-04T05:38:21.906Z,4.77
2018-09-04T05:40:49.956Z,5.57
2018-09-04T05:43:31.426Z,4.20
2018-09-04T05:46:01.933Z,5.80
2018-09-04T05:48:30.556Z,5.03
2018-09-04T05:50:59.995Z,5.70
2018-09-04T05:53:29.210Z,6.23
2018-09-04T05:55:57.347Z,5.33
2018-09-04T05:58:25.601Z,5.07
2018-09-04T06:00:57.030Z,5.60
2018-09-04T06:03:25.827Z,5.40
2018-09-04T06:05:54.541Z,6.00
2018-09-04T06:08:22.716Z,5.13
2018-09-04T06:10:51.099Z,5.70
2018-09-04T06:13:19.606Z,5.33
2018-09-04T06:15:47.661Z,4.03
2018-09-04T06:18:16.051Z,5.17
2018-09-04T06:20:44.420Z,4.77
2018-09-04T06:23:12.986Z,5.50
2018-09-04T06:25:41.081Z,5.90
2018-09-04T06:28:09.154Z,4.50
2018-09-04T06:30:37.273Z,4.40
2018-09-04T06:33:05.341Z,5.87
2018-09-04T06:35:33.800Z,4.90
2018-09-04T06:38:02.791Z,4.53
2018-09-04T06:40:30.901Z,4.53
2018-09-04T06:42:58.972Z,3.63
2018-09-04T06:45:27.674Z,4.20
2018-09-04T06:47:56.037Z,4.63
2018-09-04T06:50:24.126Z,4.70
2018-09-04T06:52:52.504Z,4.33
2018-09-04T06:55:20.638Z,4.60
2018-09-04T06:57:49.024Z,4.47
2018-09-04T07:00:17.147Z,5.00
2018-09-04T07:02:45.910Z,4.13
2018-09-04T07:05:14.273Z,5.27
2018-09-04T07:07:42.685Z,4.60
2018-09-04T07:10:10.976Z,6.23
2018-09-04T07:12:39.754Z,4.90
2018-09-04T07:15:08.966Z,5.47
2018-09-04T07:17:37.326Z,5.17
2018-09-04T07:20:05.690Z,4.47
2018-09-04T07:22:34.184Z,5.17
2018-09-04T07:25:02.538Z,4.77
2018-09-04T07:27:31.318Z,5.50
2018-09-04T07:29:59.414Z,5.80
2018-09-04T07:32:27.542Z,6.57
2018-09-04T07:34:55.941Z,5.50
2018-09-04T07:37:24.044Z,5.20
2018-09-04T07:39:52.082Z,5.80
2018-09-04T07:42:20.146Z,4.80
2018-09-04T07:44:48.202Z,4.83
2018-09-04T07:47:16.898Z,6.87
2018-09-04T07:49:45.089Z,5.37
2018-09-04T07:52:13.522Z,4.60
2018-09-04T07:54:42.910Z,5.00
2018-09-04T07:57:11.354Z,4.80
2018-09-04T07:59:40.036Z,3.83
2018-09-04T08:02:09.830Z,4.40
2018-09-04T08:04:38.628Z,5.67
2018-09-04T08:07:07.183Z,5.73
2018-09-04T08:09:35.828Z,5.67
2018-09-04T08:12:04.165Z,5.50
2018-09-04T08:14:33.066Z,6.85
2018-09-04T08:17:11.375Z,5.63
2018-09-04T08:19:46.775Z,6.60
2018-09-04T08:22:22.492Z,7.60
2018-09-04T08:24:53.392Z,6.87
2018-09-04T08:27:21.953Z,6.27
2018-09-04T08:29:51.384Z,6.43
2018-09-04T08:32:20.002Z,6.50
2018-09-04T08:34:48.902Z,6.30
2018-09-04T08:37:17.871Z,6.37
2018-09-04T08:39:47.785Z,5.83
2018-09-04T08:42:17.301Z,5.63
2018-09-04T08:44:47.520Z,6.47
2018-09-04T08:47:17.277Z,4.30
2018-09-04T08:49:47.258Z,6.53
2018-09-04T08:52:16.493Z,6.13
2018-09-04T08:54:46.046Z,5.57
2018-09-04T08:57:15.930Z,7.00
2018-09-04T08:59:46.015Z,5.33
2018-09-04T09:02:14.419Z,6.20
2018-09-04T09:04:42.797Z,5.97
2018-09-04T09:07:11.402Z,5.90
2018-09-04T09:09:39.822Z,5.97
2018-09-04T09:12:08.176Z,5.97
2018-09-04T09:14:37.546Z,6.10
2018-09-04T09:17:06.241Z,5.63
2018-09-04T09:19:34.919Z,5.73
2018-09-04T09:22:03.452Z,5.67
2018-09-04T09:24:32.087Z,6.57
2018-09-04T09:27:00.500Z,6.20
2018-09-04T09:29:29.511Z,6.00
2018-09-04T09:31:58.191Z,6.40
2018-09-04T09:34:26.607Z,7.40
2018-09-04T09:36:55.053Z,7.00
2018-09-04T09:39:23.630Z,7.33
2018-09-04T09:41:51.995Z,7.53
2018-09-04T09:44:20.395Z,7.13
2018-09-04T09:46:49.345Z,6.70
2018-09-04T09:49:17.983Z,6.53
2018-09-04T09:51:46.603Z,7.60
2018-09-04T09:54:14.967Z,7.50
2018-09-04T09:56:43.366Z,6.60
2018-09-04T09:59:12.051Z,6.40
2018-09-04T10:01:46.078Z,8.27
2018-09-04T10:04:14.559Z,7.50
2018-09-04T10:06:42.830Z,7.37
2018-09-04T10:09:11.244Z,5.07
2018-09-04T10:11:39.875Z,5.53
2018-09-04T10:14:08.661Z,5.30
2018-09-04T10:16:37.302Z,5.93
2018-09-04T10:19:05.702Z,5.80
2018-09-04T10:21:34.074Z,5.40
2018-09-04T10:24:02.454Z,7.27
2018-09-04T10:26:31.012Z,7.47
2018-09-04T10:28:59.282Z,7.10
2018-09-04T10:31:27.983Z,6.27
2018-09-04T10:33:56.381Z,6.03
2018-09-04T10:36:24.749Z,6.00
2018-09-04T10:38:58.811Z,6.93
2018-09-04T10:41:27.707Z,6.67
2018-09-04T10:43:57.315Z,6.50
2018-09-04T10:46:26.494Z,5.97
2018-09-04T10:48:54.846Z,5.27
2018-09-04T10:51:23.266Z,5.80
2018-09-04T10:53:51.894Z,5.47
2018-09-04T10:56:20.340Z,5.20
2018-09-04T10:58:48.766Z,5.90
2018-09-04T11:01:17.430Z,5.87
2018-09-04T11:03:46.060Z,5.50
2018-09-04T11:06:14.699Z,5.37
2018-09-04T11:08:43.062Z,5.80
2018-09-04T11:11:11.695Z,4.60
2018-09-04T11:13:40.090Z,5.20
2018-09-04T11:16:08.768Z,4.63
2018-09-04T11:18:37.654Z,4.50
2018-09-04T11:21:06.279Z,4.90
2018-09-04T11:23:34.648Z,5.50
2018-09-04T11:26:03.406Z,4.97
2018-09-04T11:28:33.127Z,4.17
2018-09-04T11:31:01.813Z,4.13
2018-09-04T11:33:30.443Z,4.43
2018-09-04T11:35:59.582Z,4.60
2018-09-04T11:38:28.383Z,4.23
2018-09-04T11:40:56.879Z,3.50
2018-09-04T11:43:25.562Z,3.73
2018-09-04T11:45:54.274Z,3.20
2018-09-04T11:48:22.646Z,3.23
2018-09-04T11:50:51.012Z,3.47
2018-09-04T11:53:19.371Z,3.67
2018-09-04T11:55:47.743Z,3.57
2018-09-04T11:58:15.830Z,4.13
2018-09-04T12:00:46.600Z,3.20
2018-09-04T12:03:16.027Z,3.97
2018-09-04T12:05:44.438Z,3.50
2018-09-04T12:08:13.005Z,4.17
2018-09-04T12:10:41.647Z,3.37
2018-09-04T12:13:10.353Z,3.40
2018-09-04T12:15:39.491Z,3.87
2018-09-04T12:18:10.141Z,3.70
2018-09-04T12:20:48.144Z,4.97
2018-09-04T12:23:16.820Z,4.07
2018-09-04T12:25:46.655Z,4.80
2018-09-04T12:28:15.026Z,4.03
2018-09-04T12:30:43.743Z,4.10
2018-09-04T12:33:12.101Z,2.87
2018-09-04T12:35:40.738Z,3.13
2018-09-04T12:38:19.586Z,2.93
2018-09-04T12:40:48.466Z,3.70
2018-09-04T12:43:19.453Z,4.70
2018-09-04T12:45:54.217Z,3.83
2018-09-04T12:48:28.961Z,3.90
2018-09-04T12:51:01.376Z,4.57
2018-09-04T12:53:32.037Z,4.00
2018-09-04T12:56:01.831Z,4.37
2018-09-04T12:58:31.786Z,4.77
2018-09-04T13:01:01.318Z,4.03
2018-09-04T13:03:30.514Z,4.40
2018-09-04T13:05:59.397Z,5.20
2018-09-04T13:08:30.502Z,4.60
2018-09-04T13:11:00.185Z,4.10
2018-09-04T13:13:29.948Z,4.13
2018-09-04T13:16:00.944Z,3.70
2018-09-04T13:18:30.976Z,4.40
2018-09-04T13:21:01.995Z,4.20
2018-09-04T13:23:31.462Z,4.80
2018-09-04T13:26:00.826Z,3.50
2018-09-04T13:28:30.278Z,4.73
2018-09-04T13:30:58.724Z,4.80
2018-09-04T13:33:27.135Z,3.80
2018-09-04T13:35:55.512Z,4.27
2018-09-04T13:38:23.898Z,4.43
2018-09-04T13:40:57.844Z,3.57
2018-09-04T13:43:26.311Z,4.70
2018-09-04T13:45:54.718Z,4.33
2018-09-04T13:48:28.719Z,3.77
2018-09-04T13:51:01.601Z,4.27
2018-09-04T13:53:30.559Z,4.30
2018-09-04T13:55:59.598Z,4.60
2018-09-04T13:58:28.542Z,5.60
2018-09-04T14:00:57.782Z,4.47
2018-09-04T14:03:26.572Z,5.10
2018-09-04T14:05:54.943Z,5.13
2018-09-04T14:08:24.042Z,3.93
2018-09-04T14:10:52.934Z,4.73
2018-09-04T14:13:21.511Z,4.37
2018-09-04T14:15:52.166Z,4.47
2018-09-04T14:18:20.771Z,4.30
2018-09-04T14:20:49.204Z,5.30
2018-09-04T14:23:17.818Z,5.73
2018-09-04T14:25:46.242Z,4.13
2018-09-04T14:28:40.965Z,3.43
2018-09-04T14:30:43.343Z,4.07
2018-09-04T14:33:11.955Z,4.63
2018-09-04T14:35:40.353Z,5.10
2018-09-04T14:38:09.395Z,4.40
2018-09-04T14:40:37.764Z,3.70
2018-09-04T14:43:06.297Z,5.40
2018-09-04T14:45:35.269Z,4.27
2018-09-04T14:48:03.679Z,4.13
2018-09-04T14:50:32.361Z,4.40
2018-09-04T14:53:00.698Z,4.43
2018-09-04T14:55:29.026Z,5.03
2018-09-04T14:57:57.403Z,5.30
2018-09-04T15:00:26.191Z,3.67
2018-09-04T15:02:54.856Z,3.87
2018-09-04T15:05:23.234Z,4.77
2018-09-04T15:07:51.587Z,4.03
2018-09-04T15:10:20.235Z,3.67
2018-09-04T15:12:48.867Z,4.67
2018-09-04T15:15:18.089Z,4.10
2018-09-04T15:17:46.555Z,4.50
2018-09-04T15:20:15.051Z,3.83
2018-09-04T15:22:43.455Z,4.33
2018-09-04T15:25:11.979Z,4.50
2018-09-04T15:27:40.567Z,16.17
2018-09-04T15:30:09.230Z,14.37
2018-09-04T15:32:38.386Z,7.90
2018-09-04T15:35:07.027Z,5.50
2018-09-04T15:37:35.591Z,14.40
2018-09-04T15:40:03.990Z,6.60
2018-09-04T15:42:32.425Z,7.27
2018-09-04T15:45:00.763Z,6.43
2018-09-04T15:47:29.135Z,23.40
2018-09-04T15:49:58.134Z,12.40
2018-09-04T15:52:26.494Z,4.90
2018-09-04T15:54:55.158Z,4.50
2018-09-04T15:57:23.543Z,4.50
2018-09-04T15:59:52.754Z,6.83
2018-09-04T16:02:21.486Z,4.90
2018-09-04T16:04:49.927Z,7.20
2018-09-04T16:07:18.282Z,6.57
2018-09-04T16:09:46.751Z,5.10
2018-09-04T16:12:15.023Z,5.87
2018-09-04T16:14:43.894Z,4.60
2018-09-04T16:17:12.798Z,9.87
2018-09-04T16:19:41.134Z,6.70
2018-09-04T16:22:09.631Z,5.00
2018-09-04T16:24:38.492Z,4.30
2018-09-04T16:27:07.070Z,5.30
2018-09-04T16:29:35.731Z,6.30
2018-09-04T16:32:04.134Z,5.00
2018-09-04T16:34:32.833Z,5.80
2018-09-04T16:37:01.131Z,5.80
2018-09-04T16:39:29.672Z,6.47
2018-09-04T16:41:58.967Z,5.00
2018-09-04T16:44:27.323Z,4.23
2018-09-04T16:46:55.755Z,5.80
2018-09-04T16:49:26.143Z,4.60
2018-09-04T16:51:55.303Z,5.30
2018-09-04T16:54:24.587Z,5.50
2018-09-04T16:56:53.425Z,5.10
2018-09-04T16:59:22.342Z,5.57
2018-09-04T17:01:50.733Z,4.90
2018-09-04T17:04:19.127Z,5.53
2018-09-04T17:06:47.899Z,5.40
2018-09-04T17:09:17.108Z,5.80
2018-09-04T17:11:45.570Z,5.07
2018-09-04T17:14:14.730Z,5.67
2018-09-04T17:16:43.414Z,5.47
2018-09-04T17:19:11.772Z,4.33
2018-09-04T17:21:40.187Z,5.10
2018-09-04T17:24:08.827Z,4.67
2018-09-04T17:26:38.162Z,5.00
2018-09-04T17:29:07.427Z,5.13
2018-09-04T17:31:35.798Z,5.83
2018-09-04T17:34:04.522Z,6.23
2018-09-04T17:36:33.100Z,5.30
2018-09-04T17:39:01.477Z,5.10
2018-09-04T17:41:30.498Z,5.50
2018-09-04T17:43:58.887Z,4.20
2018-09-04T17:46:27.274Z,5.03
2018-09-04T17:48:55.643Z,5.37
2018-09-04T17:51:24.117Z,4.87
2018-09-04T17:53:52.791Z,4.43
2018-09-04T17:56:32.070Z,3.93
2018-09-04T17:59:00.533Z,5.90
2018-09-04T18:01:29.145Z,5.20
2018-09-04T18:03:57.791Z,5.90
2018-09-04T18:06:26.221Z,5.60
2018-09-04T18:08:54.739Z,4.43
2018-09-04T18:11:23.226Z,6.00
2018-09-04T18:13:53.856Z,4.73
2018-09-04T18:16:22.319Z,4.43
2018-09-04T18:18:50.723Z,4.63
2018-09-04T18:21:19.106Z,5.70
2018-09-04T18:23:47.776Z,6.30
2018-09-04T18:26:16.174Z,6.13
2018-09-04T18:28:44.550Z,5.60
2018-09-04T18:31:13.126Z,6.03
2018-09-04T18:33:41.514Z,5.90
2018-09-04T18:36:09.890Z,4.23
2018-09-04T18:38:38.449Z,5.20
2018-09-04T18:41:07.342Z,4.70
2018-09-04T18:43:36.318Z,5.17
2018-09-04T18:46:05.094Z,4.93
2018-09-04T18:48:33.615Z,6.00
2018-09-04T18:51:02.190Z,5.20
2018-09-04T18:53:30.582Z,4.83
2018-09-04T18:55:58.959Z,6.70
2018-09-04T18:58:27.335Z,5.03
2018-09-04T19:00:56.102Z,6.13
2018-09-04T19:03:24.483Z,6.33
2018-09-04T19:05:52.854Z,5.97
2018-09-04T19:08:21.244Z,5.10
2018-09-04T19:10:50.766Z,4.60
2018-09-04T19:13:19.422Z,5.87
2018-09-04T19:15:47.807Z,4.63
2018-09-04T19:18:16.164Z,5.37
2018-09-04T19:20:44.850Z,5.33
2018-09-04T19:23:14.576Z,7.10
2018-09-04T19:25:43.022Z,6.17
2018-09-04T19:28:11.906Z,6.00
2018-09-04T19:30:40.591Z,5.93
2018-09-04T19:33:08.966Z,5.13
2018-09-04T19:35:37.626Z,5.50
2018-09-04T19:38:06.035Z,5.43
2018-09-04T19:40:34.390Z,6.00
2018-09-04T19:43:02.760Z,7.23
2018-09-04T19:45:31.707Z,6.57
2018-09-04T19:48:00.056Z,5.40
2018-09-04T19:50:28.752Z,6.83
2018-09-04T19:52:57.144Z,6.60
2018-09-04T19:55:25.762Z,6.10
2018-09-04T19:57:54.634Z,5.43
2018-09-04T20:00:23.005Z,5.80
2018-09-04T20:02:51.343Z,6.77
2018-09-04T20:05:20.008Z,5.60
2018-09-04T20:07:49.590Z,4.80
2018-09-04T20:10:18.045Z,5.87
2018-09-04T20:12:46.427Z,6.47
2018-09-04T20:15:14.799Z,5.00
2018-09-04T20:17:43.160Z,6.30
2018-09-04T20:20:11.559Z,5.60
2018-09-04T20:22:40.199Z,5.23
2018-09-04T20:25:08.931Z,5.90
2018-09-04T20:27:37.306Z,6.13
2018-09-04T20:30:06.157Z,7.07
2018-09-04T20:32:34.555Z,7.67
2018-09-04T20:35:02.890Z,5.83
2018-09-04T20:37:31.319Z,4.80
2018-09-04T20:39:59.667Z,6.87
2018-09-04T20:42:28.070Z,5.37
2018-09-04T20:44:56.455Z,6.10
2018-09-04T20:47:24.815Z,6.77
2018-09-04T20:49:53.219Z,6.37
2018-09-04T20:52:21.619Z,5.87
2018-09-04T20:54:50.468Z,6.33
2018-09-04T20:57:27.011Z,6.63
2018-09-04T21:00:08.059Z,6.40
2018-09-04T21:02:48.114Z,5.90
2018-09-04T21:05:28.123Z,6.50
2018-09-04T21:09:06.438Z,5.23
2018-09-04T21:11:34.806Z,7.07
2018-09-04T21:14:03.295Z,6.13
2018-09-04T21:16:31.988Z,7.67
2018-09-04T21:19:00.594Z,6.07
2018-09-04T21:21:29.030Z,5.60
2018-09-04T21:23:57.959Z,5.43
2018-09-04T21:26:26.322Z,6.23
2018-09-04T21:28:55.259Z,5.53
2018-09-04T21:31:24.050Z,6.10
2018-09-04T21:33:52.402Z,6.33
2018-09-04T21:36:20.895Z,4.90
2018-09-04T21:38:49.631Z,6.23
2018-09-04T21:41:18.346Z,5.20
2018-09-04T21:43:47.339Z,5.20
2018-09-04T21:46:15.740Z,5.30
2018-09-04T21:48:44.409Z,6.10
2018-09-04T21:51:12.837Z,5.67
2018-09-04T21:53:41.215Z,5.73
2018-09-04T21:56:09.875Z,6.13
2018-09-04T21:58:38.235Z,5.30
2018-09-04T22:01:06.987Z,6.63
2018-09-04T22:03:35.355Z,5.53
2018-09-04T22:06:03.724Z,5.87
2018-09-04T22:08:32.098Z,5.20
2018-09-04T22:11:00.787Z,5.43
2018-09-04T22:13:29.379Z,5.60
2018-09-04T22:15:57.775Z,4.83
2018-09-04T22:18:26.159Z,4.97
2018-09-04T22:20:55.066Z,5.60
2018-09-04T22:23:23.799Z,4.73
2018-09-04T22:25:52.658Z,5.47
2018-09-04T22:28:21.326Z,6.13
2018-09-04T22:30:50.038Z,6.13
2018-09-04T22:33:18.398Z,6.27
2018-09-04T22:35:47.099Z,6.20
2018-09-04T22:38:15.757Z,6.30
2018-09-04T22:40:44.447Z,5.30
2018-09-04T22:43:13.127Z,5.50
2018-09-04T22:45:41.751Z,5.90
2018-09-04T22:48:10.667Z,5.07
2018-09-04T22:50:44.611Z,6.10
2018-09-04T22:53:13.335Z,5.40
2018-09-04T22:55:42.091Z,5.33
2018-09-04T22:58:10.757Z,6.83
2018-09-04T23:00:39.194Z,6.50
2018-09-04T23:03:07.576Z,5.90
2018-09-04T23:05:35.958Z,6.70
2018-09-04T23:08:04.359Z,4.93
2018-09-04T23:10:32.979Z,8.17
2018-09-04T23:13:01.703Z,4.73
2018-09-04T23:15:30.027Z,6.37
2018-09-04T23:17:58.714Z,5.57
2018-09-04T23:20:27.326Z,6.93
2018-09-04T23:22:55.934Z,6.10
2018-09-04T23:25:24.310Z,6.23
2018-09-04T23:27:52.974Z,6.53
2018-09-04T23:30:21.310Z,6.07
2018-09-04T23:32:49.979Z,6.13
2018-09-04T23:35:19.538Z,6.50
2018-09-04T23:37:47.926Z,5.73
2018-09-04T23:40:16.638Z,7.20
2018-09-04T23:42:45.366Z,6.20
2018-09-04T23:45:14.670Z,5.80
2018-09-04T23:47:44.199Z,5.40
2018-09-04T23:50:12.856Z,5.53
2018-09-04T23:52:41.675Z,5.30
2018-09-04T23:55:10.443Z,4.97
2018-09-04T23:57:39.374Z,5.23
